To NAV CANADA Home Page Login to a new session Search on AWWS site Feedback and Comments Disclaimer Vers la page française équivalente Tips FAQ What's new on the site To the Forecasts and Observations / NOTAM section To "File a Flight Plan" website Publications and other links Update of the User's profile FIC Telephone Numbers My Weather Data Folder Route Weather Data Regional Weather Data Local Weather Data To the Forecasts and Observations / NOTAM section
Request Generated 05/25/2017 at 01:05:46 UTC . Weather information available at that time is displayed.

METAR/TAF

KANGIRSUK/QC    

LWIS CYAS 250100Z AUTO 06010KT M03/M06 A3000=
LWIS CYAS 250000Z AUTO 06011KT M02/M06 A3000=
LWIS CYAS 242300Z AUTO 10010KT M01/M06 A2999=

*** REMARK        : Forecast period has ended; this was the last TAF issued
*** REMARQUE : La période de prévision est échue; ceci était le dernier TAF qui a été émis
TAF CYAS 241338Z 2414/2421 36005KT P6SM BKN015 TEMPO 2414/2421 SCT015
BECMG 2416/2418 07008KT
RMK NXT FCST WILL BE ISSUED AT 251345Z=
Your time UTC time
Weather data provided by Environment Canada and NAV CANADA